createdAt,value
2018-02-01T00:00:51.498Z,992.63
2018-02-01T00:01:51.513Z,992.65
2018-02-01T00:03:51.549Z,992.62
2018-02-01T00:04:51.560Z,992.67
2018-02-01T00:05:51.583Z,992.69
2018-02-01T00:06:51.598Z,992.71
2018-02-01T00:07:51.620Z,992.67
2018-02-01T00:08:51.633Z,992.75
2018-02-01T00:09:51.657Z,992.79
2018-02-01T00:10:51.664Z,992.75
2018-02-01T00:11:51.687Z,992.77
2018-02-01T00:12:51.705Z,992.64
2018-02-01T00:13:51.719Z,992.77
2018-02-01T00:14:51.736Z,992.8
2018-02-01T00:15:51.755Z,992.7
2018-02-01T00:16:51.775Z,992.71
2018-02-01T00:17:51.789Z,992.72
2018-02-01T00:18:51.806Z,992.69
2018-02-01T00:19:51.822Z,992.69
2018-02-01T00:20:51.843Z,992.73
2018-02-01T00:21:51.854Z,992.71
2018-02-01T00:22:51.872Z,992.71
2018-02-01T00:23:51.886Z,992.74
2018-02-01T00:24:51.911Z,992.73
2018-02-01T00:25:51.921Z,992.75
2018-02-01T00:26:51.945Z,992.76
2018-02-01T00:27:51.962Z,992.77
2018-02-01T00:28:51.978Z,992.78
2018-02-01T00:29:51.994Z,992.81
2018-02-01T00:30:52.013Z,992.78
2018-02-01T00:31:52.025Z,992.78
2018-02-01T00:32:52.046Z,992.76
2018-02-01T00:33:52.062Z,992.76
2018-02-01T00:35:52.093Z,992.8
2018-02-01T00:36:52.107Z,992.8
2018-02-01T00:37:52.134Z,992.88
2018-02-01T00:38:52.152Z,992.82
2018-02-01T00:39:52.160Z,992.79
2018-02-01T00:40:52.181Z,992.84
2018-02-01T00:41:52.202Z,992.91
2018-02-01T00:42:52.214Z,992.9
2018-02-01T00:43:52.231Z,992.96
2018-02-01T00:44:52.246Z,992.95
2018-02-01T00:45:52.264Z,992.96
2018-02-01T00:46:52.280Z,992.94
2018-02-01T00:47:52.298Z,992.95
2018-02-01T00:48:52.320Z,992.94
2018-02-01T00:49:52.332Z,992.96
2018-02-01T00:51:52.366Z,992.96
2018-02-01T00:52:52.389Z,992.98
2018-02-01T00:53:52.402Z,992.95
2018-02-01T00:54:52.416Z,992.98
2018-02-01T00:55:52.430Z,993.05
2018-02-01T00:56:52.455Z,993.06
2018-02-01T00:57:52.472Z,993.02
2018-02-01T00:58:52.485Z,992.96
2018-02-01T00:59:52.499Z,992.91
2018-02-01T01:00:52.524Z,992.91
2018-02-01T01:01:52.535Z,992.87
2018-02-01T01:02:52.549Z,992.87
2018-02-01T01:03:52.567Z,992.89
2018-02-01T01:04:52.586Z,992.88
2018-02-01T01:05:52.605Z,992.87
2018-02-01T01:07:52.636Z,992.97
2018-02-01T01:08:52.650Z,992.94
2018-02-01T01:09:52.670Z,992.9
2018-02-01T01:10:52.690Z,992.88
2018-02-01T01:11:52.708Z,992.84
2018-02-01T01:12:52.722Z,992.82
2018-02-01T01:13:52.743Z,992.82
2018-02-01T01:14:52.750Z,992.86
2018-02-01T01:15:52.778Z,992.9
2018-02-01T01:16:52.794Z,992.96
2018-02-01T01:17:52.823Z,992.93
2018-02-01T01:18:52.822Z,992.96
2018-02-01T01:19:52.837Z,992.98
2018-02-01T01:20:52.853Z,992.98
2018-02-01T01:21:52.870Z,993
2018-02-01T01:23:52.909Z,993.03
2018-02-01T01:24:52.919Z,993.04
2018-02-01T01:25:52.936Z,993.07
2018-02-01T01:26:52.954Z,993.08
2018-02-01T01:27:52.974Z,993.02
2018-02-01T01:28:52.992Z,993.06
2018-02-01T01:29:53.005Z,993.02
2018-02-01T01:30:53.026Z,992.96
2018-02-01T01:31:53.041Z,992.97
2018-02-01T01:32:53.054Z,993
2018-02-01T01:33:53.074Z,992.95
2018-02-01T01:34:53.090Z,993.02
2018-02-01T01:35:53.108Z,993.1
2018-02-01T01:36:53.125Z,993.06
2018-02-01T01:38:53.155Z,993.04
2018-02-01T01:39:53.173Z,993.02
2018-02-01T01:40:53.187Z,993.05
2018-02-01T01:41:53.211Z,993.12
2018-02-01T01:42:53.225Z,993.06
2018-02-01T01:43:53.238Z,993.11
2018-02-01T01:44:53.261Z,993.08
2018-02-01T01:45:53.277Z,993.05
2018-02-01T01:46:53.298Z,993.04
2018-02-01T01:47:53.314Z,993.02
2018-02-01T01:48:53.326Z,993.05
2018-02-01T01:49:53.349Z,993.05
2018-02-01T01:50:53.354Z,992.99
2018-02-01T01:51:53.377Z,993.02
2018-02-01T01:52:53.388Z,993
2018-02-01T01:53:53.411Z,993
2018-02-01T01:54:53.431Z,992.99
2018-02-01T01:55:53.438Z,992.97
2018-02-01T01:56:53.466Z,992.94
2018-02-01T01:57:53.475Z,992.9
2018-02-01T01:58:53.492Z,992.93
2018-02-01T01:59:53.508Z,992.92
2018-02-01T02:00:53.540Z,992.94
2018-02-01T02:01:53.538Z,992.98
2018-02-01T02:02:53.564Z,992.95
2018-02-01T02:03:53.580Z,993.02
2018-02-01T02:04:53.588Z,993.04
2018-02-01T02:05:53.607Z,993.03
2018-02-01T02:06:53.620Z,992.92
2018-02-01T02:07:53.643Z,993
2018-02-01T02:08:53.658Z,992.92
2018-02-01T02:10:53.688Z,992.97
2018-02-01T02:11:53.713Z,992.96
2018-02-01T02:12:53.724Z,992.94
2018-02-01T02:13:53.739Z,992.98
2018-02-01T02:14:53.760Z,992.92
2018-02-01T02:15:53.772Z,992.96
2018-02-01T02:16:53.788Z,992.93
2018-02-01T02:17:53.804Z,992.98
2018-02-01T02:18:53.819Z,992.94
2018-02-01T02:19:53.839Z,992.93
2018-02-01T02:20:53.859Z,992.96
2018-02-01T02:21:53.877Z,992.96
2018-02-01T02:22:53.887Z,992.95
2018-02-01T02:23:53.905Z,993
2018-02-01T02:24:53.933Z,992.97
2018-02-01T02:26:53.957Z,992.95
2018-02-01T02:27:53.974Z,992.95
2018-02-01T02:28:53.988Z,993.02
2018-02-01T02:29:54.003Z,993.02
2018-02-01T02:30:54.018Z,993.01
2018-02-01T02:31:54.039Z,992.96
2018-02-01T02:32:54.054Z,992.94
2018-02-01T02:33:54.071Z,992.95
2018-02-01T02:34:54.089Z,992.93
2018-02-01T02:35:54.107Z,992.92
2018-02-01T02:36:54.121Z,993
2018-02-01T02:37:54.134Z,992.96
2018-02-01T02:38:54.153Z,992.95
2018-02-01T02:39:54.167Z,992.98
2018-02-01T02:40:54.186Z,993.04
2018-02-01T02:42:54.223Z,993.01
2018-02-01T02:43:54.238Z,992.99
2018-02-01T02:44:54.249Z,992.99
2018-02-01T02:45:54.269Z,992.94
2018-02-01T02:46:54.282Z,992.97
2018-02-01T02:47:54.306Z,993
2018-02-01T02:48:54.314Z,993.02
2018-02-01T02:49:54.329Z,992.99
2018-02-01T02:50:54.347Z,993
2018-02-01T02:51:54.369Z,993
2018-02-01T02:52:54.385Z,992.97
2018-02-01T02:53:54.394Z,993.01
2018-02-01T02:54:54.413Z,992.99
2018-02-01T02:55:54.432Z,993.03
2018-02-01T02:56:54.454Z,993
2018-02-01T02:58:54.480Z,993.03
2018-02-01T02:59:54.499Z,992.99
2018-02-01T03:00:54.514Z,992.96
2018-02-01T03:01:54.532Z,992.95
2018-02-01T03:02:54.542Z,992.96
2018-02-01T03:03:54.564Z,992.99
2018-02-01T03:04:54.575Z,992.97
2018-02-01T03:05:54.598Z,992.94
2018-02-01T03:06:54.613Z,992.94
2018-02-01T03:07:54.630Z,992.99
2018-02-01T03:08:54.651Z,992.99
2018-02-01T03:09:54.664Z,992.98
2018-02-01T03:10:54.675Z,992.97
2018-02-01T03:11:54.693Z,992.93
2018-02-01T03:13:54.732Z,992.99
2018-02-01T03:14:54.745Z,992.98
2018-02-01T03:15:54.760Z,992.96
2018-02-01T03:16:54.778Z,992.94
2018-02-01T03:17:54.797Z,992.96
2018-02-01T03:18:54.810Z,992.96
2018-02-01T03:19:54.825Z,992.96
2018-02-01T03:20:54.848Z,992.91
2018-02-01T03:21:54.860Z,992.88
2018-02-01T03:22:54.872Z,992.87
2018-02-01T03:23:54.894Z,992.92
2018-02-01T03:24:54.905Z,992.93
2018-02-01T03:25:54.926Z,992.94
2018-02-01T03:26:54.944Z,992.91
2018-02-01T03:27:54.962Z,992.95
2018-02-01T03:28:54.978Z,992.98
2018-02-01T03:29:54.987Z,992.98
2018-02-01T03:30:55.013Z,992.95
2018-02-01T03:31:55.023Z,992.9
2018-02-01T03:32:55.042Z,992.93
2018-02-01T03:33:55.057Z,992.93
2018-02-01T03:34:55.068Z,992.91
2018-02-01T03:35:55.088Z,992.88
2018-02-01T03:36:55.101Z,992.91
2018-02-01T03:37:55.118Z,992.93
2018-02-01T03:38:55.137Z,992.88
2018-02-01T03:39:55.155Z,992.88
2018-02-01T03:40:55.169Z,992.86
2018-02-01T03:41:55.190Z,992.87
2018-02-01T03:42:55.203Z,992.85
2018-02-01T03:43:55.219Z,992.87
2018-02-01T03:45:55.251Z,992.87
2018-02-01T03:46:55.266Z,992.9
2018-02-01T03:47:55.287Z,992.86
2018-02-01T03:48:55.294Z,992.88
2018-02-01T03:49:55.317Z,992.88
2018-02-01T03:50:55.335Z,992.94
2018-02-01T03:51:55.354Z,992.97
2018-02-01T03:52:55.365Z,992.97
2018-02-01T03:53:55.385Z,992.94
2018-02-01T03:54:55.395Z,993
2018-02-01T03:55:55.412Z,992.98
2018-02-01T03:56:55.428Z,992.99
2018-02-01T03:57:55.450Z,993.03
2018-02-01T03:58:55.458Z,992.95
2018-02-01T03:59:55.482Z,992.96
2018-02-01T04:01:55.506Z,993.02
2018-02-01T04:02:55.530Z,992.99
2018-02-01T04:03:55.542Z,993
2018-02-01T04:04:55.557Z,993.05
2018-02-01T04:05:55.576Z,993.04
2018-02-01T04:06:55.587Z,993.11
2018-02-01T04:07:55.603Z,993.09
2018-02-01T04:08:55.621Z,993.08
2018-02-01T04:09:55.641Z,993.04
2018-02-01T04:10:55.652Z,993.08
2018-02-01T04:11:55.671Z,993.1
2018-02-01T04:12:55.684Z,993.13
2018-02-01T04:13:55.707Z,993.12
2018-02-01T04:14:55.726Z,993.1
2018-02-01T04:15:55.739Z,993.13
2018-02-01T04:17:55.765Z,993.11
2018-02-01T04:18:55.781Z,993.17
2018-02-01T04:19:55.803Z,993.15
2018-02-01T04:20:55.820Z,993.12
2018-02-01T04:21:55.840Z,993.15
2018-02-01T04:22:55.852Z,993.13
2018-02-01T04:23:55.871Z,993.19
2018-02-01T04:24:55.880Z,993.2
2018-02-01T04:25:55.896Z,993.17
2018-02-01T04:26:55.913Z,993.22
2018-02-01T04:27:55.926Z,993.21
2018-02-01T04:28:55.949Z,993.14
2018-02-01T04:29:55.967Z,993.22
2018-02-01T04:30:55.978Z,993.18
2018-02-01T04:31:55.994Z,993.2
2018-02-01T04:33:56.032Z,993.23
2018-02-01T04:34:56.043Z,993.17
2018-02-01T04:35:56.060Z,993.19
2018-02-01T04:36:56.078Z,993.19
2018-02-01T04:37:56.092Z,993.2
2018-02-01T04:38:56.112Z,993.15
2018-02-01T04:39:56.125Z,993.19
2018-02-01T04:40:56.141Z,993.2
2018-02-01T04:41:56.152Z,993.23
2018-02-01T04:42:56.173Z,993.23
2018-02-01T04:43:56.188Z,993.23
2018-02-01T04:44:56.200Z,993.27
2018-02-01T04:45:56.224Z,993.23
2018-02-01T04:46:56.238Z,993.27
2018-02-01T04:48:56.272Z,993.31
2018-02-01T04:49:56.285Z,993.32
2018-02-01T04:50:56.303Z,993.32
2018-02-01T04:51:56.318Z,993.3
2018-02-01T04:52:56.334Z,993.32
2018-02-01T04:53:56.345Z,993.37
2018-02-01T04:54:56.365Z,993.35
2018-02-01T04:55:56.388Z,993.35
2018-02-01T04:56:56.396Z,993.34
2018-02-01T04:57:56.415Z,993.35
2018-02-01T04:58:56.435Z,993.4
2018-02-01T04:59:56.450Z,993.38
2018-02-01T05:00:56.465Z,993.36
2018-02-01T05:01:56.479Z,993.39
2018-02-01T05:02:56.498Z,993.43
2018-02-01T05:03:56.510Z,993.44
2018-02-01T05:04:56.531Z,993.47
2018-02-01T05:05:56.544Z,993.43
2018-02-01T05:06:56.556Z,993.43
2018-02-01T05:07:56.578Z,993.46
2018-02-01T05:08:56.592Z,993.46
2018-02-01T05:09:56.605Z,993.47
2018-02-01T05:10:56.621Z,993.49
2018-02-01T05:11:56.644Z,993.5
2018-02-01T05:12:56.658Z,993.58
2018-02-01T05:13:56.676Z,993.55
2018-02-01T05:14:56.684Z,993.56
2018-02-01T05:15:56.702Z,993.54
2018-02-01T05:16:56.727Z,993.56
2018-02-01T05:17:56.742Z,993.58
2018-02-01T05:18:56.755Z,993.58
2018-02-01T05:20:56.788Z,993.61
2018-02-01T05:21:56.825Z,993.61
2018-02-01T05:22:56.815Z,993.66
2018-02-01T05:23:56.832Z,993.68
2018-02-01T05:24:56.853Z,993.62
2018-02-01T05:25:56.867Z,993.6
2018-02-01T05:26:56.884Z,993.61
2018-02-01T05:27:56.897Z,993.6
2018-02-01T05:28:56.917Z,993.56
2018-02-01T05:29:56.929Z,993.54
2018-02-01T05:30:56.948Z,993.56
2018-02-01T05:31:56.962Z,993.53
2018-02-01T05:32:56.980Z,993.45
2018-02-01T05:33:56.996Z,993.51
2018-02-01T05:34:57.010Z,993.53
2018-02-01T05:36:57.047Z,993.51
2018-02-01T05:37:57.061Z,993.55
2018-02-01T05:38:57.076Z,993.58
2018-02-01T05:39:57.101Z,993.6
2018-02-01T05:40:57.110Z,993.66
2018-02-01T05:41:57.125Z,993.66
2018-02-01T05:42:57.136Z,993.62
2018-02-01T05:43:57.152Z,993.67
2018-02-01T05:44:57.173Z,993.7
2018-02-01T05:45:57.184Z,993.73
2018-02-01T05:46:57.205Z,993.76
2018-02-01T05:47:57.226Z,993.72
2018-02-01T05:48:57.238Z,993.73
2018-02-01T05:49:57.254Z,993.79
2018-02-01T05:50:57.266Z,993.77
2018-02-01T05:52:57.304Z,993.75
2018-02-01T05:53:57.312Z,993.76
2018-02-01T05:54:57.331Z,993.78
2018-02-01T05:55:57.354Z,993.77
2018-02-01T05:56:57.370Z,993.76
2018-02-01T05:57:57.379Z,993.73
2018-02-01T05:58:57.396Z,993.74
2018-02-01T05:59:57.414Z,993.76
2018-02-01T06:00:57.428Z,993.75
2018-02-01T06:01:57.447Z,993.75
2018-02-01T06:02:57.459Z,993.79
2018-02-01T06:03:57.478Z,993.73
2018-02-01T06:04:57.492Z,993.78
2018-02-01T06:05:57.508Z,993.77
2018-02-01T06:06:57.529Z,993.76
2018-02-01T06:08:57.555Z,993.73
2018-02-01T06:09:57.573Z,993.73
2018-02-01T06:10:57.591Z,993.71
2018-02-01T06:11:57.604Z,993.74
2018-02-01T06:12:57.623Z,993.74
2018-02-01T06:13:57.632Z,993.69
2018-02-01T06:14:57.651Z,993.73
2018-02-01T06:15:57.666Z,993.76
2018-02-01T06:16:57.680Z,993.72
2018-02-01T06:17:57.705Z,993.77
2018-02-01T06:18:57.717Z,993.74
2018-02-01T06:19:57.735Z,993.8
2018-02-01T06:20:57.746Z,993.86
2018-02-01T06:21:57.765Z,993.89
2018-02-01T06:23:57.797Z,993.92
2018-02-01T06:24:57.818Z,993.96
2018-02-01T06:25:57.826Z,993.97
2018-02-01T06:26:57.846Z,993.98
2018-02-01T06:27:57.858Z,993.98
2018-02-01T06:28:57.871Z,993.99
2018-02-01T06:29:57.894Z,994.03
2018-02-01T06:30:57.914Z,994.04
2018-02-01T06:31:57.925Z,994.03
2018-02-01T06:32:57.939Z,994.07
2018-02-01T06:33:57.959Z,994.1
2018-02-01T06:34:57.973Z,994.12
2018-02-01T06:35:57.986Z,994.14
2018-02-01T06:36:58.001Z,994.12
2018-02-01T06:37:58.017Z,994.16
2018-02-01T06:38:58.041Z,994.1
2018-02-01T06:39:58.053Z,994.07
2018-02-01T06:40:58.073Z,994.05
2018-02-01T06:41:58.082Z,994.05
2018-02-01T06:42:58.131Z,994.06
2018-02-01T06:43:58.120Z,994.04
2018-02-01T06:44:58.127Z,994.12
2018-02-01T06:45:58.147Z,994.17
2018-02-01T06:46:58.165Z,994.19
2018-02-01T06:47:58.181Z,994.15
2018-02-01T06:48:58.194Z,994.17
2018-02-01T06:49:58.208Z,994.19
2018-02-01T06:50:58.224Z,994.2
2018-02-01T06:51:58.243Z,994.22
2018-02-01T06:52:58.257Z,994.28
2018-02-01T06:53:58.274Z,994.32
2018-02-01T06:55:58.310Z,994.37
2018-02-01T06:56:58.322Z,994.41
2018-02-01T06:57:58.337Z,994.4
2018-02-01T06:58:58.354Z,994.37
2018-02-01T06:59:58.362Z,994.36
2018-02-01T07:00:58.425Z,994.34
2018-02-01T07:01:58.400Z,994.38
2018-02-01T07:02:58.414Z,994.44
2018-02-01T07:03:58.429Z,994.46
2018-02-01T07:04:58.441Z,994.42
2018-02-01T07:05:58.459Z,994.43
2018-02-01T07:06:58.477Z,994.46
2018-02-01T07:07:58.493Z,994.48
2018-02-01T07:08:58.508Z,994.49
2018-02-01T07:09:58.522Z,994.52
2018-02-01T07:11:58.557Z,994.53
2018-02-01T07:12:58.566Z,994.5
2018-02-01T07:13:58.589Z,994.53
2018-02-01T07:14:58.602Z,994.49
2018-02-01T07:15:58.613Z,994.52
2018-02-01T07:16:58.636Z,994.55
2018-02-01T07:17:58.648Z,994.53
2018-02-01T07:18:58.669Z,994.58
2018-02-01T07:19:58.676Z,994.61
2018-02-01T07:20:58.694Z,994.61
2018-02-01T07:21:58.711Z,994.61
2018-02-01T07:22:58.731Z,994.61
2018-02-01T07:23:58.750Z,994.62
2018-02-01T07:24:58.758Z,994.67
2018-02-01T07:25:58.778Z,994.69
2018-02-01T07:27:58.805Z,994.69
2018-02-01T07:28:58.819Z,994.66
2018-02-01T07:29:58.837Z,994.58
2018-02-01T07:30:58.850Z,994.61
2018-02-01T07:31:58.876Z,994.61
2018-02-01T07:32:58.888Z,994.64
2018-02-01T07:33:58.910Z,994.64
2018-02-01T07:34:58.915Z,994.69
2018-02-01T07:35:58.931Z,994.66
2018-02-01T07:36:58.949Z,994.62
2018-02-01T07:37:58.964Z,994.61
2018-02-01T07:38:58.984Z,994.68
2018-02-01T07:39:59.093Z,994.64
2018-02-01T07:40:59.015Z,994.7
2018-02-01T07:41:59.023Z,994.68
2018-02-01T07:43:59.064Z,994.67
2018-02-01T07:44:59.081Z,994.73
2018-02-01T07:45:59.087Z,994.73
2018-02-01T07:46:59.107Z,994.7
2018-02-01T07:47:59.125Z,994.75
2018-02-01T07:48:59.138Z,994.76
2018-02-01T07:49:59.156Z,994.84
2018-02-01T07:50:59.174Z,994.83
2018-02-01T07:51:59.182Z,994.82
2018-02-01T07:52:59.204Z,994.83
2018-02-01T07:53:59.213Z,994.78
2018-02-01T07:54:59.233Z,994.85
2018-02-01T07:55:59.251Z,994.88
2018-02-01T07:56:59.273Z,994.91
2018-02-01T07:58:59.342Z,995
2018-02-01T07:59:59.310Z,994.96
2018-02-01T08:00:59.330Z,994.89
2018-02-01T08:01:59.347Z,994.9
2018-02-01T08:02:59.363Z,994.9
2018-02-01T08:03:59.376Z,994.89
2018-02-01T08:04:59.393Z,994.91
2018-02-01T08:05:59.410Z,994.92
2018-02-01T08:06:59.421Z,994.93
2018-02-01T08:07:59.449Z,994.92
2018-02-01T08:08:59.459Z,994.96
2018-02-01T08:09:59.478Z,994.96
2018-02-01T08:10:59.587Z,994.82
2018-02-01T08:11:59.506Z,994.81
2018-02-01T08:12:59.565Z,994.85
2018-02-01T08:13:59.542Z,994.87
2018-02-01T08:14:59.556Z,994.87
2018-02-01T08:15:59.570Z,994.99
2018-02-01T08:16:59.587Z,994.98
2018-02-01T08:17:59.608Z,995
2018-02-01T08:18:59.621Z,994.98
2018-02-01T08:19:59.637Z,994.96
2018-02-01T08:20:59.651Z,995.05
2018-02-01T08:21:59.669Z,994.99
2018-02-01T08:22:59.680Z,995
2018-02-01T08:23:59.697Z,995
2018-02-01T08:24:59.716Z,994.98
2018-02-01T08:25:59.733Z,995.02
2018-02-01T08:26:59.749Z,995.02
2018-02-01T08:27:59.765Z,995.03
2018-02-01T08:28:59.783Z,995.01
2018-02-01T08:30:59.815Z,995.08
2018-02-01T08:31:59.833Z,995.1
2018-02-01T08:32:59.842Z,995.09
2018-02-01T08:33:59.862Z,995.14
2018-02-01T08:34:59.880Z,995.18
2018-02-01T08:35:59.902Z,995.17
2018-02-01T08:36:59.916Z,995.28
2018-02-01T08:38:00.028Z,995.3
2018-02-01T08:38:59.948Z,995.3
2018-02-01T08:39:59.970Z,995.26
2018-02-01T08:40:59.982Z,995.31
2018-02-01T08:41:59.999Z,995.3
2018-02-01T08:43:00.014Z,995.25
2018-02-01T08:44:00.027Z,995.24
2018-02-01T08:45:00.045Z,995.25
2018-02-01T08:47:00.081Z,995.23
2018-02-01T08:48:00.094Z,995.25
2018-02-01T08:49:00.105Z,995.26
2018-02-01T08:50:00.126Z,995.24
2018-02-01T08:51:00.181Z,995.16
2018-02-01T08:52:00.161Z,995.23
2018-02-01T08:53:00.181Z,995.27
2018-02-01T08:54:00.191Z,995.23
2018-02-01T08:55:00.205Z,995.29
2018-02-01T08:56:00.227Z,995.26
2018-02-01T08:57:00.238Z,995.24
2018-02-01T08:58:00.259Z,995.17
2018-02-01T08:59:00.278Z,995.23
2018-02-01T09:00:00.295Z,995.2
2018-02-01T09:01:00.310Z,995.22
2018-02-01T09:03:00.344Z,995.32
2018-02-01T09:04:00.364Z,995.39
2018-02-01T09:05:00.376Z,995.36
2018-02-01T09:06:00.395Z,995.43
2018-02-01T09:07:00.405Z,995.43
2018-02-01T09:08:00.426Z,995.47
2018-02-01T09:09:00.446Z,995.51
2018-02-01T09:10:00.467Z,995.43
2018-02-01T09:11:00.480Z,995.46
2018-02-01T09:12:00.501Z,995.42
2018-02-01T09:13:00.512Z,995.47
2018-02-01T09:14:00.531Z,995.48
2018-02-01T09:15:00.547Z,995.55
2018-02-01T09:16:00.562Z,995.53
2018-02-01T09:17:00.581Z,995.55
2018-02-01T09:19:00.613Z,995.46
2018-02-01T09:20:00.629Z,995.45
2018-02-01T09:21:00.643Z,995.43
2018-02-01T09:22:00.661Z,995.41
2018-02-01T09:23:00.676Z,995.38
2018-02-01T09:24:00.701Z,995.44
2018-02-01T09:25:00.721Z,995.4
2018-02-01T09:26:00.734Z,995.43
2018-02-01T09:27:00.753Z,995.42
2018-02-01T09:28:00.764Z,995.45
2018-02-01T09:29:00.778Z,995.52
2018-02-01T09:30:00.801Z,995.43
2018-02-01T09:31:00.816Z,995.44
2018-02-01T09:32:00.831Z,995.4
2018-02-01T09:34:00.870Z,995.32
2018-02-01T09:35:00.883Z,995.39
2018-02-01T09:36:00.897Z,995.43
2018-02-01T09:37:00.914Z,995.44
2018-02-01T09:38:00.938Z,995.53
2018-02-01T09:39:01.003Z,995.48
2018-02-01T09:40:00.975Z,995.48
2018-02-01T09:41:00.985Z,995.5
2018-02-01T09:42:01.017Z,995.5
2018-02-01T09:43:01.022Z,995.53
2018-02-01T09:44:01.032Z,995.46
2018-02-01T09:45:01.055Z,995.49
2018-02-01T09:46:01.073Z,995.5
2018-02-01T09:47:01.089Z,995.48
2018-02-01T09:48:01.110Z,995.42
2018-02-01T09:49:01.118Z,995.47
2018-02-01T09:50:01.140Z,995.46
2018-02-01T09:51:01.155Z,995.5
2018-02-01T09:52:01.175Z,995.52
2018-02-01T09:53:01.191Z,995.56
2018-02-01T09:54:01.204Z,995.57
2018-02-01T09:55:01.219Z,995.57
2018-02-01T09:56:01.239Z,995.56
2018-02-01T09:57:01.261Z,995.52
2018-02-01T09:58:01.277Z,995.44
2018-02-01T09:59:01.294Z,995.41
2018-02-01T10:00:01.314Z,995.41
2018-02-01T10:01:01.322Z,995.43
2018-02-01T10:02:01.347Z,995.43
2018-02-01T10:03:01.362Z,995.45
2018-02-01T10:04:01.379Z,995.42
2018-02-01T10:06:01.417Z,995.34
2018-02-01T10:07:01.429Z,995.38
2018-02-01T10:08:01.443Z,995.38
2018-02-01T10:09:01.468Z,995.42
2018-02-01T10:10:01.482Z,995.46
2018-02-01T10:11:01.494Z,995.49
2018-02-01T10:12:01.514Z,995.5
2018-02-01T10:13:01.534Z,995.5
2018-02-01T10:14:01.565Z,995.51
2018-02-01T10:15:01.570Z,995.44
2018-02-01T10:16:01.583Z,995.44
2018-02-01T10:17:01.600Z,995.44
2018-02-01T10:18:01.615Z,995.45
2018-02-01T10:19:01.635Z,995.49
2018-02-01T10:20:01.653Z,995.48
2018-02-01T10:22:01.690Z,995.52
2018-02-01T10:23:01.703Z,995.56
2018-02-01T10:24:01.720Z,995.49
2018-02-01T10:25:01.744Z,995.55
2018-02-01T10:26:01.757Z,995.54
2018-02-01T10:27:01.776Z,995.54
2018-02-01T10:28:01.792Z,995.58
2018-02-01T10:29:01.815Z,995.61
2018-02-01T10:30:01.826Z,995.63
2018-02-01T10:31:01.842Z,995.64
2018-02-01T10:32:01.859Z,995.6
2018-02-01T10:33:01.879Z,995.53
2018-02-01T10:34:01.897Z,995.52
2018-02-01T10:35:01.918Z,995.48
2018-02-01T10:36:01.933Z,995.55
2018-02-01T10:38:01.967Z,995.47
2018-02-01T10:39:01.996Z,995.56
2018-02-01T10:40:01.999Z,995.53
2018-02-01T10:41:02.020Z,995.49
2018-02-01T10:42:02.036Z,995.49
2018-02-01T10:43:02.059Z,995.54
2018-02-01T10:44:02.072Z,995.55
2018-02-01T10:45:02.089Z,995.53
2018-02-01T10:46:02.108Z,995.47
2018-02-01T10:47:02.117Z,995.45
2018-02-01T10:48:02.139Z,995.44
2018-02-01T10:49:02.153Z,995.43
2018-02-01T10:50:02.173Z,995.46
2018-02-01T10:51:02.193Z,995.43
2018-02-01T10:52:02.207Z,995.38
2018-02-01T10:54:02.339Z,995.5
2018-02-01T10:55:02.263Z,995.47
2018-02-01T10:56:02.279Z,995.51
2018-02-01T10:57:02.294Z,995.49
2018-02-01T10:58:02.314Z,995.5
2018-02-01T10:59:02.324Z,995.45
2018-02-01T11:00:02.377Z,995.49
2018-02-01T11:01:02.371Z,995.46
2018-02-01T11:02:02.379Z,995.5
2018-02-01T11:03:02.398Z,995.44
2018-02-01T11:04:02.417Z,995.38
2018-02-01T11:05:02.436Z,995.39
2018-02-01T11:06:02.452Z,995.4
2018-02-01T11:07:02.476Z,995.35
2018-02-01T11:09:02.508Z,995.34
2018-02-01T11:10:02.525Z,995.28
2018-02-01T11:11:02.537Z,995.27
2018-02-01T11:12:02.555Z,995.28
2018-02-01T11:13:02.580Z,995.32
2018-02-01T11:14:02.597Z,995.28
2018-02-01T11:15:02.607Z,995.38
2018-02-01T11:16:02.635Z,995.41
2018-02-01T11:17:02.642Z,995.36
2018-02-01T11:18:02.666Z,995.4
2018-02-01T11:19:02.706Z,995.39
2018-02-01T11:20:02.702Z,995.36
2018-02-01T11:21:02.718Z,995.31
2018-02-01T11:22:02.736Z,995.36
2018-02-01T11:23:02.749Z,995.37
2018-02-01T11:24:02.770Z,995.34
2018-02-01T11:25:02.795Z,995.31
2018-02-01T11:26:02.813Z,995.45
2018-02-01T11:27:02.822Z,995.46
2018-02-01T11:28:02.843Z,995.4
2018-02-01T11:29:02.866Z,995.45
2018-02-01T11:30:02.881Z,995.42
2018-02-01T11:31:02.894Z,995.39
2018-02-01T11:32:02.913Z,995.34
2018-02-01T11:33:02.930Z,995.36
2018-02-01T11:34:02.952Z,995.38
2018-02-01T11:35:02.970Z,995.36
2018-02-01T11:36:02.985Z,995.38
2018-02-01T11:37:03.004Z,995.39
2018-02-01T11:38:03.029Z,995.43
2018-02-01T11:39:03.045Z,995.48
2018-02-01T11:41:03.082Z,995.5
2018-02-01T11:42:03.094Z,995.47
2018-02-01T11:43:03.112Z,995.48
2018-02-01T11:44:03.129Z,995.44
2018-02-01T11:45:03.144Z,995.38
2018-02-01T11:46:03.168Z,995.39
2018-02-01T11:47:03.190Z,995.34
2018-02-01T11:48:03.214Z,995.38
2018-02-01T11:49:03.221Z,995.33
2018-02-01T11:50:03.335Z,995.26
2018-02-01T11:51:03.257Z,995.3
2018-02-01T11:52:03.272Z,995.26
2018-02-01T11:53:03.289Z,995.34
2018-02-01T11:54:03.312Z,995.34
2018-02-01T11:55:03.325Z,995.35
2018-02-01T11:57:03.364Z,995.35
2018-02-01T11:58:03.384Z,995.38
2018-02-01T11:59:03.404Z,995.4
2018-02-01T12:00:03.419Z,995.42
2018-02-01T12:01:03.436Z,995.35
2018-02-01T12:02:03.461Z,995.32
2018-02-01T12:03:03.467Z,995.36
2018-02-01T12:04:03.493Z,995.36
2018-02-01T12:05:03.514Z,995.35
2018-02-01T12:06:03.525Z,995.36
2018-02-01T12:07:03.539Z,995.35
2018-02-01T12:08:03.563Z,995.32
2018-02-01T12:09:03.581Z,995.39
2018-02-01T12:10:03.598Z,995.38
2018-02-01T12:11:03.617Z,995.37
2018-02-01T12:13:03.652Z,995.4
2018-02-01T12:14:03.672Z,995.39
2018-02-01T12:15:03.690Z,995.4
2018-02-01T12:16:03.709Z,995.39
2018-02-01T12:17:03.724Z,995.4
2018-02-01T12:18:03.740Z,995.46
2018-02-01T12:19:03.761Z,995.44
2018-02-01T12:20:03.776Z,995.47
2018-02-01T12:21:03.792Z,995.47
2018-02-01T12:22:03.817Z,995.48
2018-02-01T12:23:03.829Z,995.54
2018-02-01T12:24:03.850Z,995.47
2018-02-01T12:25:03.868Z,995.45
2018-02-01T12:26:03.881Z,995.51
2018-02-01T12:27:03.896Z,995.48
2018-02-01T12:29:03.941Z,995.5
2018-02-01T12:30:03.956Z,995.49
2018-02-01T12:31:03.974Z,995.49
2018-02-01T12:32:03.993Z,995.57
2018-02-01T12:33:04.008Z,995.53
2018-02-01T12:34:04.029Z,995.46
2018-02-01T12:35:04.054Z,995.51
2018-02-01T12:36:04.064Z,995.4
2018-02-01T12:37:04.077Z,995.45
2018-02-01T12:38:04.101Z,995.46
2018-02-01T12:39:04.116Z,995.46
2018-02-01T12:40:04.136Z,995.43
2018-02-01T12:41:04.161Z,995.48
2018-02-01T12:42:04.172Z,995.45
2018-02-01T12:44:04.210Z,995.47
2018-02-01T12:45:04.228Z,995.41
2018-02-01T12:46:04.243Z,995.37
2018-02-01T12:47:04.261Z,995.36
2018-02-01T12:48:04.287Z,995.41
2018-02-01T12:49:04.306Z,995.31
2018-02-01T12:50:04.313Z,995.29
2018-02-01T12:51:04.335Z,995.28
2018-02-01T12:52:04.350Z,995.16
2018-02-01T12:53:04.370Z,995.22
2018-02-01T12:54:04.389Z,995.21
2018-02-01T12:55:04.410Z,995.27
2018-02-01T12:56:04.426Z,995.24
2018-02-01T12:57:04.450Z,995.22
2018-02-01T12:58:04.461Z,995.21
2018-02-01T12:59:04.481Z,995.23
2018-02-01T13:00:04.504Z,995.21
2018-02-01T13:01:04.515Z,995.19
2018-02-01T13:02:04.531Z,995.09
2018-02-01T13:03:04.546Z,995.13
2018-02-01T13:04:04.566Z,995.18
2018-02-01T13:05:04.586Z,995.12
2018-02-01T13:06:04.613Z,995.17
2018-02-01T13:07:04.626Z,995.19
2018-02-01T13:08:04.643Z,995.15
2018-02-01T13:09:04.653Z,995.19
2018-02-01T13:10:04.678Z,995.25
2018-02-01T13:11:04.689Z,995.25
2018-02-01T13:12:04.717Z,995.28
2018-02-01T13:13:04.729Z,995.3
2018-02-01T13:14:04.748Z,995.34